Terminal Aerodrome Forecast
Issued by NWS Riverton, WY

Home | Current Version | Previous Version | Text Only | Print | Product List | Glossary On
Versions: 1 2 3 4 5 6 7 8 9 10 11 12 13
000
FTUS45 KRIW 230000 AAA
TAFRIW
TAF AMD
KRIW 230039Z 2301/2324 27014G20KT P6SM SCT060 BKN090
     FM230130 30027G35KT 2SM -SHSN SCT018 OVC030
     FM230230 30018G26KT P6SM VCSH SCT030 BKN060
     FM231700 32018G26KT P6SM SCT070 BKN140=

USA.gov is the U.S. government's official web portal to all federal, state and local government web resources and services.